Time;durP1;ratioP1;P1;durP2;ratioP2;P2;SDS_P1;SDS_P2;PMS_P1;PMS_P2;Temp;Humidity;BMP_temperature;BMP_pressure;BME280_temperature;BME280_humidity;BME280_pressure;Samples;Min_cycle;Max_cycle;Signal;HPM_P1;HPM_P2
2023/07/18 00:01:15;;;;;;;5.82;3.67;;;13.20;99.90;;;;;;5073952;28;20036;-84
2023/07/18 00:03:41;;;;;;;5.80;3.58;;;13.20;99.90;;;;;;5089216;28;20048;-84
2023/07/18 00:06:08;;;;;;;6.15;3.70;;;13.10;99.90;;;;;;5082871;28;20069;-84
2023/07/18 00:08:34;;;;;;;7.50;3.75;;;13.10;99.90;;;;;;5109307;28;20150;-84
2023/07/18 00:11:00;;;;;;;6.78;3.60;;;13.30;99.90;;;;;;5087533;28;20126;-84
2023/07/18 00:13:25;;;;;;;5.90;3.63;;;13.10;99.90;;;;;;5108043;28;20055;-84
2023/07/18 00:15:51;;;;;;;6.40;3.67;;;13.00;99.90;;;;;;5098906;28;20498;-84
2023/07/18 00:18:17;;;;;;;7.60;3.95;;;13.00;99.90;;;;;;5091248;28;20048;-84
2023/07/18 00:20:42;;;;;;;7.88;3.90;;;13.00;99.90;;;;;;5085505;28;20042;-85
2023/07/18 00:23:10;;;;;;;6.85;3.90;;;13.00;99.90;;;;;;5088276;28;20075;-85
2023/07/18 00:25:37;;;;;;;10.40;4.38;;;13.00;99.90;;;;;;5074760;28;20845;-85
2023/07/18 00:28:03;;;;;;;6.80;4.55;;;13.00;99.90;;;;;;5089386;28;20417;-84
2023/07/18 00:30:29;;;;;;;8.48;3.92;;;13.00;99.90;;;;;;5106889;28;20051;-85
2023/07/18 00:32:56;;;;;;;10.48;5.00;;;13.00;99.90;;;;;;5095102;28;20039;-85
2023/07/18 00:35:22;;;;;;;8.40;4.13;;;12.90;99.90;;;;;;5098631;28;20521;-84
2023/07/18 00:37:49;;;;;;;9.65;4.38;;;13.00;99.90;;;;;;5095795;28;20052;-84
2023/07/18 00:40:14;;;;;;;9.35;3.95;;;12.90;99.90;;;;;;5107500;28;20379;-84
2023/07/18 00:42:43;;;;;;;6.57;3.80;;;12.90;99.90;;;;;;5091829;28;20054;-85
2023/07/18 00:45:09;;;;;;;9.77;4.15;;;12.90;99.90;;;;;;5095089;28;20055;-84
2023/07/18 00:47:40;;;;;;;8.52;4.60;;;12.90;99.90;;;;;;5070190;28;20052;-85
2023/07/18 00:50:14;;;;;;;8.88;4.28;;;12.90;99.90;;;;;;5087895;28;20044;-84
2023/07/18 00:52:51;;;;;;;8.05;4.05;;;12.90;99.90;;;;;;5071425;28;20528;-84
2023/07/18 00:55:17;;;;;;;8.25;4.03;;;12.90;99.90;;;;;;5090731;28;20544;-84
2023/07/18 00:57:45;;;;;;;6.75;4.00;;;12.90;99.90;;;;;;5107356;28;20052;-84
2023/07/18 01:00:12;;;;;;;6.80;3.90;;;12.90;99.90;;;;;;5087898;28;20040;-85
2023/07/18 01:02:40;;;;;;;8.35;4.10;;;12.90;99.90;;;;;;5088179;28;20483;-84
2023/07/18 01:05:07;;;;;;;11.48;4.47;;;12.90;99.90;;;;;;5077111;28;20043;-84
2023/07/18 01:07:34;;;;;;;7.88;4.00;;;12.90;99.90;;;;;;5108560;28;20043;-84
2023/07/18 01:10:23;;;;;;;7.95;4.00;;;13.30;99.90;;;;;;5087513;28;20119;-84
2023/07/18 01:12:59;;;;;;;9.20;4.30;;;12.90;99.90;;;;;;5087988;28;20139;-85
2023/07/18 01:15:28;;;;;;;6.22;4.07;;;12.80;99.90;;;;;;5101722;28;20032;-85
2023/07/18 01:17:53;;;;;;;7.88;4.50;;;12.90;99.90;;;;;;5108193;28;20089;-84
2023/07/18 01:20:22;;;;;;;8.07;4.55;;;12.80;99.90;;;;;;5107047;28;20457;-83
2023/07/18 01:22:50;;;;;;;8.40;4.55;;;12.80;99.90;;;;;;5108908;28;20040;-84
2023/07/18 01:25:20;;;;;;;9.48;4.80;;;12.80;99.90;;;;;;5105946;28;20051;-85
2023/07/18 01:27:48;;;;;;;9.52;4.68;;;13.10;99.90;;;;;;5110112;28;20047;-84
2023/07/18 01:30:15;;;;;;;8.10;4.70;;;12.70;99.90;;;;;;5107844;28;20035;-84
2023/07/18 01:32:42;;;;;;;7.20;4.30;;;12.70;99.90;;;;;;5106004;28;20053;-84
2023/07/18 01:35:08;;;;;;;7.72;4.32;;;12.70;99.90;;;;;;5083160;28;20485;-84
2023/07/18 01:37:37;;;;;;;8.50;4.38;;;12.60;99.90;;;;;;5090021;28;20051;-85
2023/07/18 01:40:14;;;;;;;8.15;4.05;;;12.70;99.90;;;;;;5096990;28;20052;-85
2023/07/18 01:42:40;;;;;;;10.27;4.25;;;12.40;99.90;;;;;;5101047;28;20504;-84
2023/07/18 01:45:07;;;;;;;8.32;4.22;;;12.80;99.90;;;;;;5096726;28;20043;-85
2023/07/18 01:47:33;;;;;;;8.32;4.75;;;12.60;99.90;;;;;;5091179;28;20048;-85
2023/07/18 01:49:59;;;;;;;9.93;4.82;;;12.60;99.90;;;;;;5105034;28;20468;-85
2023/07/18 01:52:28;;;;;;;6.53;4.22;;;12.60;99.90;;;;;;5089321;28;20087;-84
2023/07/18 01:54:58;;;;;;;8.38;4.63;;;12.60;99.90;;;;;;5107656;28;20078;-85
2023/07/18 01:57:30;;;;;;;9.23;4.63;;;12.60;99.90;;;;;;5105359;28;20515;-84
2023/07/18 01:59:57;;;;;;;9.75;4.40;;;12.60;99.90;;;;;;5106941;28;20044;-84
2023/07/18 02:02:22;;;;;;;10.70;5.15;;;12.60;99.90;;;;;;5090329;28;20348;-84
2023/07/18 02:04:49;;;;;;;11.00;4.93;;;12.60;99.90;;;;;;5082390;28;20051;-84
2023/07/18 02:07:15;;;;;;;6.75;4.47;;;12.60;99.90;;;;;;5071284;28;20097;-84
2023/07/18 02:09:41;;;;;;;7.78;4.68;;;12.60;99.90;;;;;;5086293;28;20048;-84
2023/07/18 02:12:08;;;;;;;8.10;5.18;;;12.60;99.90;;;;;;5102446;28;20050;-83
2023/07/18 02:14:36;;;;;;;8.95;4.78;;;12.60;99.90;;;;;;5088073;28;20040;-84
2023/07/18 02:17:02;;;;;;;7.53;4.70;;;12.60;99.90;;;;;;5086792;28;20040;-84
2023/07/18 02:19:28;;;;;;;9.07;4.65;;;12.60;99.90;;;;;;5069452;28;20130;-84
2023/07/18 02:21:54;;;;;;;12.15;4.88;;;12.40;99.90;;;;;;5069634;28;20489;-84
2023/07/18 02:24:19;;;;;;;8.65;4.57;;;12.50;99.90;;;;;;5069130;28;20714;-84
2023/07/18 02:26:45;;;;;;;8.20;4.90;;;12.50;99.90;;;;;;5082763;28;20122;-84
2023/07/18 02:29:10;;;;;;;10.23;5.78;;;12.50;99.90;;;;;;5073881;28;20057;-84
2023/07/18 02:31:37;;;;;;;7.30;4.68;;;13.00;99.90;;;;;;5099348;28;20036;-84
2023/07/18 02:34:04;;;;;;;7.10;4.35;;;12.40;99.90;;;;;;5090036;28;20052;-84
2023/07/18 02:36:31;;;;;;;9.45;4.88;;;12.40;99.90;;;;;;5068738;28;20040;-84
2023/07/18 02:38:57;;;;;;;10.50;4.55;;;12.50;99.90;;;;;;5094440;28;20126;-85
2023/07/18 02:41:22;;;;;;;8.07;4.88;;;12.40;99.90;;;;;;5078503;28;20128;-84
2023/07/18 02:43:48;;;;;;;8.85;5.00;;;12.40;99.90;;;;;;5069758;28;20040;-84
2023/07/18 02:46:13;;;;;;;8.15;5.20;;;12.50;99.90;;;;;;5085948;28;20814;-84
2023/07/18 02:48:39;;;;;;;7.68;5.10;;;12.30;99.90;;;;;;5087724;28;20100;-85
2023/07/18 02:51:05;;;;;;;9.20;5.63;;;12.30;99.90;;;;;;5087234;28;20059;-84
2023/07/18 02:53:31;;;;;;;7.75;5.18;;;12.30;99.90;;;;;;5086514;28;20052;-85
2023/07/18 02:55:56;;;;;;;10.05;5.13;;;12.30;99.90;;;;;;5103134;28;20440;-84
2023/07/18 02:58:22;;;;;;;8.30;5.07;;;12.30;99.90;;;;;;5089408;28;20043;-84
2023/07/18 03:00:50;;;;;;;11.25;4.95;;;12.20;99.90;;;;;;5077825;28;20051;-85
2023/07/18 03:03:16;;;;;;;8.02;5.20;;;12.20;99.90;;;;;;5099636;28;20059;-84
2023/07/18 03:05:42;;;;;;;6.38;4.68;;;12.20;99.90;;;;;;5100851;28;20043;-84
2023/07/18 03:08:07;;;;;;;8.27;5.00;;;12.20;99.90;;;;;;5071152;28;20036;-84
2023/07/18 03:10:33;;;;;;;11.38;5.38;;;12.20;99.90;;;;;;5094517;28;20055;-84
2023/07/18 03:12:59;;;;;;;9.75;5.03;;;12.20;99.90;;;;;;5096518;28;20333;-84
2023/07/18 03:15:24;;;;;;;10.93;5.32;;;12.40;99.90;;;;;;5085861;28;20044;-85
2023/07/18 03:17:50;;;;;;;7.70;4.85;;;12.20;99.90;;;;;;5087325;28;20044;-83
2023/07/18 03:20:19;;;;;;;8.20;5.15;;;12.30;99.90;;;;;;5088694;28;20343;-84
2023/07/18 03:22:46;;;;;;;6.95;5.30;;;12.10;99.90;;;;;;5104769;28;20555;-84
2023/07/18 03:25:12;;;;;;;8.95;5.38;;;12.10;99.90;;;;;;5086366;28;20058;-84
2023/07/18 03:27:38;;;;;;;8.93;5.22;;;12.10;99.90;;;;;;5098791;28;20055;-84
2023/07/18 03:30:06;;;;;;;8.55;5.00;;;12.10;99.90;;;;;;5109812;28;20039;-84
2023/07/18 03:32:32;;;;;;;12.13;5.72;;;12.10;99.90;;;;;;5104106;28;20056;-84
2023/07/18 03:34:59;;;;;;;7.43;4.78;;;12.10;99.90;;;;;;5073442;28;20115;-83
2023/07/18 03:37:25;;;;;;;10.32;5.32;;;12.10;99.90;;;;;;5072389;28;20614;-84
2023/07/18 03:39:51;;;;;;;10.20;5.68;;;12.10;99.90;;;;;;5089915;28;20414;-83
2023/07/18 03:42:17;;;;;;;13.73;5.80;;;12.20;99.90;;;;;;5092035;28;20044;-84
2023/07/18 03:44:43;;;;;;;10.52;5.07;;;12.10;99.90;;;;;;5110169;28;20420;-84
2023/07/18 03:47:08;;;;;;;9.80;5.43;;;11.90;99.90;;;;;;5093973;28;20043;-84
2023/07/18 03:49:34;;;;;;;9.27;4.90;;;12.30;99.90;;;;;;5089982;28;20051;-83
2023/07/18 03:52:00;;;;;;;11.27;4.93;;;12.20;99.90;;;;;;5089490;28;20364;-84
2023/07/18 03:54:26;;;;;;;10.23;5.60;;;12.20;99.90;;;;;;5072475;28;20040;-84
2023/07/18 03:56:52;;;;;;;8.48;5.28;;;12.40;99.90;;;;;;5103663;28;20047;-84
2023/07/18 03:59:18;;;;;;;9.30;5.15;;;12.50;99.90;;;;;;5087168;28;20104;-84
2023/07/18 04:01:43;;;;;;;14.07;5.43;;;12.20;99.90;;;;;;5108156;28;20048;-84
2023/07/18 04:04:09;;;;;;;14.00;6.00;;;12.30;99.90;;;;;;5098216;28;20351;-83
2023/07/18 04:06:38;;;;;;;9.07;5.25;;;12.30;99.90;;;;;;5079833;28;20043;-84
2023/07/18 04:09:03;;;;;;;10.35;5.63;;;12.30;99.90;;;;;;5106935;28;20050;-84
2023/07/18 04:11:29;;;;;;;9.07;5.07;;;12.40;99.90;;;;;;5076098;28;20409;-84
2023/07/18 04:13:55;;;;;;;10.95;5.10;;;12.40;99.90;;;;;;5081688;28;20059;-84
2023/07/18 04:16:20;;;;;;;9.00;5.05;;;12.40;99.90;;;;;;5108797;28;20043;-84
2023/07/18 04:18:46;;;;;;;8.10;4.90;;;12.50;99.90;;;;;;5108381;28;20097;-84
2023/07/18 04:21:12;;;;;;;10.48;5.38;;;12.50;99.90;;;;;;5089212;28;20044;-83
2023/07/18 04:23:38;;;;;;;10.93;5.80;;;12.50;99.90;;;;;;5089962;28;20048;-84
2023/07/18 04:26:04;;;;;;;9.55;5.35;;;12.60;99.90;;;;;;5072017;28;20051;-83
2023/07/18 04:28:36;;;;;;;9.43;5.32;;;12.60;99.90;;;;;;5109220;28;20048;-83
2023/07/18 04:31:02;;;;;;;17.08;6.30;;;12.90;99.90;;;;;;5104728;28;20047;-84
2023/07/18 04:33:32;;;;;;;12.55;5.85;;;12.90;99.90;;;;;;5087730;28;20039;-84
2023/07/18 04:35:58;;;;;;;8.15;5.20;;;12.90;99.90;;;;;;5093329;28;20040;-83
2023/07/18 04:38:23;;;;;;;11.52;5.60;;;13.10;99.90;;;;;;5088131;28;20055;-84
2023/07/18 04:40:49;;;;;;;11.77;5.60;;;13.10;99.90;;;;;;5088171;28;20040;-84
2023/07/18 04:43:14;;;;;;;10.27;5.22;;;13.50;99.90;;;;;;5070943;28;20123;-83
2023/07/18 04:45:42;;;;;;;8.52;5.03;;;13.30;99.90;;;;;;5088770;28;20040;-83
2023/07/18 04:48:09;;;;;;;10.23;5.18;;;13.40;99.90;;;;;;5071030;28;20043;-84
2023/07/18 04:50:36;;;;;;;9.27;4.80;;;13.40;99.90;;;;;;5070884;28;20044;-83
2023/07/18 04:53:02;;;;;;;11.38;5.13;;;13.50;99.90;;;;;;5106050;28;20059;-84
2023/07/18 04:55:28;;;;;;;8.43;5.03;;;13.70;99.90;;;;;;5089968;28;20043;-84
2023/07/18 04:57:53;;;;;;;10.80;4.75;;;13.60;99.90;;;;;;5106699;28;20090;-85
2023/07/18 05:00:19;;;;;;;12.40;5.47;;;13.70;99.90;;;;;;5090673;28;20220;-84
2023/07/18 05:02:58;;;;;;;10.45;4.75;;;13.70;99.90;;;;;;5080585;28;20051;-84
2023/07/18 05:05:30;;;;;;;8.32;4.60;;;13.70;99.90;;;;;;5099518;28;20032;-85
2023/07/18 05:07:58;;;;;;;10.93;5.07;;;13.70;99.90;;;;;;5103813;28;20116;-84
2023/07/18 05:10:24;;;;;;;12.15;5.00;;;13.70;99.90;;;;;;5091632;28;20035;-85
2023/07/18 05:12:53;;;;;;;11.30;5.05;;;13.90;99.90;;;;;;5102736;28;20036;-84
2023/07/18 05:15:19;;;;;;;9.18;4.95;;;13.90;99.90;;;;;;5077455;28;20442;-84
2023/07/18 05:17:45;;;;;;;11.20;4.82;;;14.10;99.90;;;;;;5090437;28;20158;-84
2023/07/18 05:20:11;;;;;;;13.30;5.20;;;14.20;99.90;;;;;;5104074;28;20039;-84
2023/07/18 05:22:44;;;;;;;13.05;5.15;;;14.40;99.90;;;;;;5108182;28;20537;-86
2023/07/18 05:25:12;;;;;;;10.85;4.53;;;14.50;99.90;;;;;;5109937;28;20051;-84
2023/07/18 05:27:39;;;;;;;10.80;4.63;;;14.60;99.90;;;;;;5107941;28;20053;-84
2023/07/18 05:30:05;;;;;;;9.52;4.45;;;14.70;99.90;;;;;;5096891;28;20042;-87
2023/07/18 05:32:31;;;;;;;8.68;4.22;;;14.90;99.90;;;;;;5072172;28;20056;-84
2023/07/18 05:35:00;;;;;;;8.90;4.43;;;15.10;99.90;;;;;;5099213;28;20142;-86
2023/07/18 05:37:28;;;;;;;9.70;4.45;;;15.30;99.90;;;;;;5074157;28;20104;-85
2023/07/18 05:39:54;;;;;;;10.68;4.35;;;15.70;99.90;;;;;;5090855;28;20400;-86
2023/07/18 05:42:22;;;;;;;8.88;4.20;;;15.50;99.90;;;;;;5076377;28;20055;-86
2023/07/18 05:44:48;;;;;;;7.05;3.88;;;15.50;99.90;;;;;;5088168;28;20127;-86
2023/07/18 05:47:15;;;;;;;9.35;3.83;;;15.60;99.90;;;;;;5087458;28;20572;-86
2023/07/18 05:49:41;;;;;;;8.02;3.92;;;15.60;99.90;;;;;;5070238;28;20055;-85
2023/07/18 05:52:07;;;;;;;6.93;3.55;;;15.70;99.90;;;;;;5106973;28;20048;-86
2023/07/18 05:54:32;;;;;;;9.50;4.18;;;15.80;99.90;;;;;;5090870;28;20048;-86
2023/07/18 05:57:03;;;;;;;8.35;4.15;;;16.00;99.90;;;;;;5108107;28;20101;-85
2023/07/18 05:59:38;;;;;;;9.37;4.10;;;16.60;99.90;;;;;;5084383;28;20111;-87
2023/07/18 06:02:04;;;;;;;8.88;4.20;;;16.90;99.90;;;;;;5071329;28;20290;-85
2023/07/18 06:04:30;;;;;;;7.90;3.90;;;16.90;99.90;;;;;;5069568;28;20097;-85
2023/07/18 06:06:56;;;;;;;6.55;3.58;;;16.80;99.90;;;;;;5082665;28;20040;-87
2023/07/18 06:09:22;;;;;;;11.82;4.00;;;17.10;99.90;;;;;;5110903;28;20035;-90
2023/07/18 06:11:47;;;;;;;8.10;3.55;;;17.10;99.90;;;;;;5109235;28;20040;-86
2023/07/18 06:14:13;;;;;;;6.82;3.30;;;17.30;99.90;;;;;;5090161;28;20430;-87
2023/07/18 06:16:38;;;;;;;9.50;4.00;;;18.10;99.90;;;;;;5088596;28;20620;-86
2023/07/18 06:19:04;;;;;;;8.98;4.15;;;18.30;99.90;;;;;;5103962;28;20048;-85
2023/07/18 06:21:30;;;;;;;7.70;3.50;;;18.90;99.90;;;;;;5106386;28;20723;-85
2023/07/18 06:23:57;;;;;;;7.63;3.17;;;19.10;99.90;;;;;;5106514;28;20048;-87
2023/07/18 06:26:23;;;;;;;8.82;3.10;;;19.30;99.90;;;;;;5080327;28;20493;-88
2023/07/18 06:28:49;;;;;;;6.13;3.10;;;18.60;99.90;;;;;;5086636;28;20044;-86
2023/07/18 06:31:15;;;;;;;6.50;3.15;;;18.50;99.90;;;;;;5087325;28;20056;-86
2023/07/18 06:33:41;;;;;;;8.93;3.25;;;18.50;99.90;;;;;;5096481;28;20047;-88
2023/07/18 06:36:07;;;;;;;10.18;3.47;;;18.30;99.90;;;;;;5107746;28;20048;-85
2023/07/18 06:38:33;;;;;;;7.00;3.10;;;18.00;99.90;;;;;;5094286;28;20052;-86
2023/07/18 06:40:58;;;;;;;5.38;3.00;;;18.00;99.90;;;;;;5101685;28;20070;-85
2023/07/18 06:43:24;;;;;;;7.68;3.00;;;18.00;99.90;;;;;;5090154;28;20052;-85
2023/07/18 06:45:50;;;;;;;8.15;3.50;;;18.20;99.90;;;;;;5107515;28;20039;-85
2023/07/18 06:48:16;;;;;;;7.00;2.97;;;17.80;99.90;;;;;;5085249;28;20036;-86
2023/07/18 06:50:46;;;;;;;8.38;3.03;;;17.70;99.90;;;;;;5086626;28;20450;-86
2023/07/18 06:53:17;;;;;;;7.30;2.97;;;17.70;99.90;;;;;;5086224;28;20055;-86
2023/07/18 06:55:44;;;;;;;8.27;3.08;;;17.70;99.90;;;;;;5086600;28;20047;-86
2023/07/18 06:58:10;;;;;;;6.25;2.83;;;18.00;99.90;;;;;;5069808;28;20040;-86
2023/07/18 07:00:36;;;;;;;5.60;3.35;;;17.70;99.90;;;;;;5086275;28;20048;-85
2023/07/18 07:03:02;;;;;;;7.07;3.10;;;17.70;99.90;;;;;;5069738;28;20517;-85
2023/07/18 07:05:27;;;;;;;8.38;3.03;;;17.80;99.90;;;;;;5086384;28;20036;-86
2023/07/18 07:07:53;;;;;;;7.10;2.97;;;18.10;99.90;;;;;;5086167;28;20138;-86
2023/07/18 07:10:19;;;;;;;7.95;3.10;;;18.20;99.90;;;;;;5086465;28;20383;-86
2023/07/18 07:12:45;;;;;;;5.90;2.72;;;18.40;99.90;;;;;;5086669;28;20105;-85
2023/07/18 07:15:11;;;;;;;9.02;3.25;;;18.60;99.90;;;;;;5087043;28;20047;-86
2023/07/18 07:17:38;;;;;;;7.32;2.92;;;18.80;99.90;;;;;;5086690;28;20592;-85
2023/07/18 07:20:06;;;;;;;9.15;2.92;;;18.90;99.90;;;;;;5069234;28;20052;-86
2023/07/18 07:22:32;;;;;;;10.80;2.92;;;19.00;99.90;;;;;;5086434;28;20541;-86
2023/07/18 07:24:57;;;;;;;8.82;3.20;;;19.20;99.90;;;;;;5086359;28;20043;-87
2023/07/18 07:27:26;;;;;;;8.20;3.00;;;19.40;99.90;;;;;;5086691;28;20036;-86
2023/07/18 07:29:52;;;;;;;9.80;3.58;;;19.70;99.90;;;;;;5086459;28;20193;-86
2023/07/18 07:32:17;;;;;;;9.68;3.97;;;19.50;99.90;;;;;;5086241;28;20177;-86
2023/07/18 07:34:43;;;;;;;10.05;2.85;;;19.50;99.90;;;;;;5086636;28;20048;-87
2023/07/18 07:37:10;;;;;;;7.15;3.05;;;19.60;99.90;;;;;;5068918;28;20044;-86
2023/07/18 07:39:36;;;;;;;7.32;3.00;;;19.80;99.90;;;;;;5081554;28;20051;-87
2023/07/18 07:42:01;;;;;;;7.50;3.08;;;20.10;99.90;;;;;;5096811;28;20460;-87
2023/07/18 07:44:27;;;;;;;5.55;2.80;;;20.10;99.90;;;;;;5069919;28;20036;-87
2023/07/18 07:46:54;;;;;;;7.57;2.80;;;20.20;99.90;;;;;;5086454;28;20048;-88
2023/07/18 07:49:23;;;;;;;8.43;2.90;;;20.50;99.90;;;;;;5093678;28;20133;-89
2023/07/18 07:51:49;;;;;;;8.63;3.17;;;20.80;99.90;;;;;;5104338;28;20051;-87
2023/07/18 07:54:14;;;;;;;12.40;4.13;;;21.00;99.90;;;;;;5074640;28;20494;-87
2023/07/18 07:56:41;;;;;;;7.70;3.47;;;21.10;99.90;;;;;;5088424;28;20469;-89
2023/07/18 07:59:07;;;;;;;8.20;3.78;;;21.30;99.90;;;;;;5072064;28;20185;-89
2023/07/18 08:01:32;;;;;;;9.07;3.67;;;21.50;99.90;;;;;;5106814;28;20130;-86
2023/07/18 08:03:59;;;;;;;10.45;3.50;;;21.10;99.90;;;;;;5094517;28;20032;-88
2023/07/18 08:06:26;;;;;;;7.20;3.80;;;21.10;99.90;;;;;;5095861;28;20258;-87
2023/07/18 08:08:51;;;;;;;9.93;3.75;;;21.20;99.90;;;;;;5107394;28;20142;-85
2023/07/18 08:11:17;;;;;;;8.63;3.30;;;21.30;99.90;;;;;;5073053;28;20040;-87
2023/07/18 08:13:43;;;;;;;9.10;3.63;;;21.00;99.90;;;;;;5073544;28;20040;-89
2023/07/18 08:16:08;;;;;;;10.65;3.60;;;20.90;99.90;;;;;;5096740;28;20040;-85
2023/07/18 08:18:34;;;;;;;7.65;3.88;;;21.00;99.90;;;;;;5093241;28;20779;-86
2023/07/18 08:20:59;;;;;;;11.40;3.15;;;21.50;99.90;;;;;;5104782;28;20048;-86
2023/07/18 08:23:25;;;;;;;10.15;3.15;;;21.20;99.90;;;;;;5098074;28;20063;-87
2023/07/18 08:25:51;;;;;;;9.07;3.28;;;21.20;99.90;;;;;;5097340;28;20194;-87
2023/07/18 08:28:16;;;;;;;6.35;2.70;;;21.10;99.90;;;;;;5101822;28;20374;-86
2023/07/18 08:30:43;;;;;;;11.77;3.25;;;21.00;99.90;;;;;;5108038;28;20139;-87
2023/07/18 08:33:09;;;;;;;7.43;2.42;;;21.10;99.90;;;;;;5089133;28;20048;-85
2023/07/18 08:35:37;;;;;;;10.50;2.85;;;21.60;99.90;;;;;;5100863;28;20157;-85
2023/07/18 08:38:02;;;;;;;6.95;2.80;;;21.40;99.90;;;;;;5090561;28;20044;-86
2023/07/18 08:40:31;;;;;;;9.18;2.95;;;21.50;99.90;;;;;;5088631;28;20044;-85
2023/07/18 08:42:57;;;;;;;13.02;3.13;;;21.80;99.90;;;;;;5071792;28;20040;-85
2023/07/18 08:45:25;;;;;;;13.40;3.05;;;22.00;99.90;;;;;;5087799;28;20036;-86
2023/07/18 08:47:56;;;;;;;8.68;2.85;;;21.90;99.90;;;;;;5071753;28;20048;-86
2023/07/18 08:50:23;;;;;;;9.02;3.10;;;22.10;99.90;;;;;;5086992;28;20156;-85
2023/07/18 08:52:48;;;;;;;8.13;2.50;;;22.20;99.90;;;;;;5078006;28;20111;-86
2023/07/18 08:55:14;;;;;;;7.15;2.35;;;22.30;99.90;;;;;;5090366;28;20130;-87
2023/07/18 08:57:41;;;;;;;5.10;2.65;;;22.40;99.90;;;;;;5089478;28;20051;-88
2023/07/18 09:00:07;;;;;;;7.70;2.75;;;22.70;99.90;;;;;;5072076;28;20036;-86
2023/07/18 09:02:33;;;;;;;10.05;2.65;;;22.80;99.90;;;;;;5072081;28;20103;-84
2023/07/18 09:04:59;;;;;;;58.83;6.65;;;23.00;99.90;;;;;;5087797;28;20474;-86
2023/07/18 09:07:27;;;;;;;8.43;2.20;;;23.00;99.90;;;;;;5094215;28;20043;-86
2023/07/18 09:09:55;;;;;;;6.18;2.28;;;23.00;99.90;;;;;;5108338;28;20402;-87
2023/07/18 09:12:20;;;;;;;6.03;2.00;;;23.00;99.90;;;;;;5108544;28;20051;-89
2023/07/18 09:14:46;;;;;;;4.45;1.40;;;23.20;99.90;;;;;;5090626;28;20035;-86
2023/07/18 09:17:12;;;;;;;7.03;1.98;;;23.00;99.90;;;;;;5108421;28;20039;-86
2023/07/18 09:19:48;;;;;;;6.63;1.77;;;23.40;99.90;;;;;;5096481;28;20151;-86
2023/07/18 09:22:17;;;;;;;4.65;1.88;;;23.20;99.90;;;;;;5075246;28;20122;-86
2023/07/18 09:24:43;;;;;;;5.57;1.60;;;23.40;99.90;;;;;;5108631;28;20043;-86
2023/07/18 09:27:14;;;;;;;6.97;1.75;;;23.30;99.90;;;;;;5108149;28;20070;-87
2023/07/18 09:29:45;;;;;;;6.43;1.70;;;23.40;99.90;;;;;;5089475;28;20043;-85
2023/07/18 09:32:18;;;;;;;5.35;1.70;;;23.30;99.90;;;;;;5107701;28;20297;-86
2023/07/18 09:34:51;;;;;;;5.60;1.50;;;23.10;99.90;;;;;;5090922;28;20054;-86
2023/07/18 09:37:17;;;;;;;4.18;1.50;;;23.10;99.90;;;;;;5099232;28;20055;-84
2023/07/18 09:39:43;;;;;;;4.43;1.58;;;23.20;99.90;;;;;;5107347;28;20028;-87
2023/07/18 09:42:10;;;;;;;6.57;1.80;;;23.20;99.90;;;;;;5106144;28;20054;-87
2023/07/18 09:44:37;;;;;;;5.70;1.52;;;23.30;99.90;;;;;;5106706;28;20421;-87
2023/07/18 09:47:02;;;;;;;3.85;1.45;;;23.80;99.90;;;;;;5108873;28;20058;-85
2023/07/18 09:49:29;;;;;;;2.70;1.30;;;23.40;99.90;;;;;;5107897;28;20122;-88
2023/07/18 09:52:04;;;;;;;2.90;1.25;;;23.50;99.90;;;;;;5091632;28;20074;-87
2023/07/18 09:54:31;;;;;;;2.78;1.42;;;23.60;99.40;;;;;;5087684;28;20040;-87
2023/07/18 09:57:02;;;;;;;3.00;1.30;;;23.60;99.90;;;;;;5087833;28;20048;-84
2023/07/18 09:59:29;;;;;;;3.45;1.15;;;23.90;98.60;;;;;;5089472;28;20090;-87
2023/07/18 10:01:55;;;;;;;3.17;1.42;;;23.60;99.50;;;;;;5072001;28;20028;-86
2023/07/18 10:04:21;;;;;;;5.25;1.92;;;23.80;99.50;;;;;;5086781;28;20390;-87
2023/07/18 10:06:49;;;;;;;3.22;1.30;;;24.10;99.00;;;;;;5087107;28;20052;-86
2023/07/18 10:09:16;;;;;;;4.43;1.40;;;24.00;99.60;;;;;;5102862;28;20398;-87
2023/07/18 10:12:01;;;;;;;4.20;1.48;;;23.80;98.20;;;;;;5071300;28;20527;-88
2023/07/18 10:14:30;;;;;;;5.18;1.35;;;23.80;95.80;;;;;;5087419;28;20099;-86
2023/07/18 10:17:05;;;;;;;7.25;1.40;;;23.90;96.40;;;;;;5094519;28;20705;-88
2023/07/18 10:19:45;;;;;;;4.10;1.15;;;24.30;96.00;;;;;;5077674;28;20070;-86
2023/07/18 10:22:11;;;;;;;4.75;1.00;;;24.10;93.70;;;;;;5072680;28;20036;-87
2023/07/18 10:24:37;;;;;;;3.88;1.48;;;24.20;95.70;;;;;;5070994;28;20094;-87
2023/07/18 10:27:09;;;;;;;5.32;1.58;;;24.40;96.00;;;;;;5090832;28;20036;-88
2023/07/18 10:29:38;;;;;;;4.38;1.60;;;24.60;94.00;;;;;;5108402;28;20511;-88
2023/07/18 10:32:06;;;;;;;2.80;1.13;;;24.70;93.70;;;;;;5107741;28;20050;-88
2023/07/18 10:34:39;;;;;;;4.60;1.15;;;24.40;92.90;;;;;;5087242;28;20505;-87
2023/07/18 10:37:07;;;;;;;4.47;1.30;;;24.40;92.80;;;;;;5088612;28;20073;-89
2023/07/18 10:39:48;;;;;;;4.88;1.20;;;24.10;91.90;;;;;;5100278;28;20561;-90
2023/07/18 10:42:21;;;;;;;2.55;1.15;;;24.20;90.10;;;;;;5107130;28;20085;-87
2023/07/18 10:44:55;;;;;;;3.40;1.02;;;24.40;91.60;;;;;;5107532;28;20047;-89
2023/07/18 10:47:21;;;;;;;2.97;1.23;;;24.20;91.60;;;;;;5090676;28;20056;-89
2023/07/18 10:49:47;;;;;;;3.15;1.00;;;24.30;91.60;;;;;;5091534;28;20094;-87
2023/07/18 10:52:14;;;;;;;2.00;0.90;;;24.20;90.20;;;;;;5071603;28;20060;-87
2023/07/18 10:54:45;;;;;;;2.60;0.93;;;24.50;89.40;;;;;;5086839;28;20562;-87
2023/07/18 10:57:11;;;;;;;3.80;1.08;;;24.50;88.80;;;;;;5087037;28;20509;-87
2023/07/18 10:59:36;;;;;;;3.15;1.00;;;24.10;87.70;;;;;;5104230;28;20044;-88
2023/07/18 11:02:03;;;;;;;4.03;1.15;;;23.80;87.40;;;;;;5087255;28;20036;-86
2023/07/18 11:04:29;;;;;;;3.38;1.00;;;23.70;87.70;;;;;;5088690;28;20043;-88
2023/07/18 11:06:55;;;;;;;3.67;1.30;;;23.70;89.00;;;;;;5094308;28;20051;-84
2023/07/18 11:09:22;;;;;;;6.65;1.30;;;23.60;88.40;;;;;;5086756;28;20283;-85
2023/07/18 11:11:48;;;;;;;5.00;1.20;;;23.90;87.80;;;;;;5068993;28;20501;-85
2023/07/18 11:14:14;;;;;;;3.83;0.98;;;23.30;89.10;;;;;;5103352;28;20090;-84
2023/07/18 11:16:40;;;;;;;3.22;1.00;;;23.10;90.20;;;;;;5086329;28;20087;-84
2023/07/18 11:19:06;;;;;;;4.50;1.00;;;23.20;91.10;;;;;;5086203;28;20106;-85
2023/07/18 11:21:32;;;;;;;1.95;1.10;;;23.80;91.00;;;;;;5085640;28;20562;-85
2023/07/18 11:23:59;;;;;;;3.05;1.15;;;23.50;90.90;;;;;;5086378;28;20070;-84
2023/07/18 11:26:24;;;;;;;5.47;1.30;;;23.80;90.80;;;;;;5100385;28;20039;-84
2023/07/18 11:28:52;;;;;;;2.13;1.10;;;24.00;90.20;;;;;;5106678;28;20113;-84
2023/07/18 11:31:28;;;;;;;4.32;1.25;;;23.90;88.40;;;;;;5106044;28;20473;-85
2023/07/18 11:33:55;;;;;;;1.17;0.90;;;23.90;86.20;;;;;;5087068;28;20200;-84
2023/07/18 11:36:22;;;;;;;3.15;1.10;;;24.10;87.60;;;;;;5094158;28;20089;-85
2023/07/18 11:38:50;;;;;;;2.40;1.30;;;24.10;86.50;;;;;;5084449;28;20078;-85
2023/07/18 11:41:40;;;;;;;3.22;1.27;;;23.70;83.60;;;;;;5085095;28;20046;-85
2023/07/18 11:44:08;;;;;;;2.70;1.05;;;24.30;79.80;;;;;;5092996;28;20090;-85
2023/07/18 11:46:40;;;;;;;2.22;1.13;;;24.30;84.20;;;;;;5080652;28;20104;-86
2023/07/18 11:49:07;;;;;;;3.38;1.20;;;24.30;83.10;;;;;;5095103;28;20088;-86
2023/07/18 11:51:32;;;;;;;3.63;1.13;;;24.60;85.30;;;;;;5110077;28;20058;-86
2023/07/18 11:54:03;;;;;;;2.00;1.35;;;24.40;84.20;;;;;;5110031;28;20056;-85
2023/07/18 11:56:34;;;;;;;2.65;1.00;;;24.60;83.30;;;;;;5099535;28;20036;-85
2023/07/18 11:59:00;;;;;;;2.53;1.08;;;24.80;82.80;;;;;;5090203;28;20047;-86
2023/07/18 12:01:26;;;;;;;2.13;1.20;;;24.90;83.10;;;;;;5095540;28;20101;-85
2023/07/18 12:03:52;;;;;;;4.03;1.10;;;24.80;81.30;;;;;;5105454;28;20059;-87
2023/07/18 12:06:21;;;;;;;4.22;0.90;;;24.70;81.20;;;;;;5107300;28;20044;-85
2023/07/18 12:08:48;;;;;;;2.00;0.70;;;24.80;81.90;;;;;;5089338;28;20056;-86
2023/07/18 12:11:17;;;;;;;2.15;0.70;;;24.70;78.60;;;;;;5105431;28;20783;-86
2023/07/18 12:13:44;;;;;;;3.38;1.35;;;24.50;76.90;;;;;;5084264;28;20390;-84
2023/07/18 12:16:09;;;;;;;3.63;0.90;;;24.40;76.70;;;;;;5096046;28;20047;-85
2023/07/18 12:18:36;;;;;;;2.58;1.00;;;24.50;77.90;;;;;;5109218;28;20057;-85
2023/07/18 12:21:01;;;;;;;1.98;0.68;;;24.50;76.80;;;;;;5101253;28;20050;-85
2023/07/18 12:23:27;;;;;;;1.73;0.80;;;24.60;74.60;;;;;;5092945;28;20136;-85
2023/07/18 12:25:53;;;;;;;2.03;0.70;;;24.50;71.70;;;;;;5111260;28;20043;-85
2023/07/18 12:28:19;;;;;;;1.67;1.02;;;24.70;71.40;;;;;;5090904;28;20068;-86
2023/07/18 12:30:44;;;;;;;2.92;0.80;;;24.70;74.80;;;;;;5081290;28;20063;-84
2023/07/18 12:33:10;;;;;;;2.20;0.77;;;24.90;74.30;;;;;;5102676;28;20047;-85
2023/07/18 12:35:36;;;;;;;1.27;0.93;;;24.90;74.50;;;;;;5097363;28;20109;-85
2023/07/18 12:38:02;;;;;;;2.28;1.10;;;25.20;75.10;;;;;;5098122;28;20051;-84
2023/07/18 12:40:27;;;;;;;3.42;1.00;;;25.20;74.10;;;;;;5101656;28;20104;-84
2023/07/18 12:42:53;;;;;;;2.25;0.90;;;25.00;72.50;;;;;;5098185;28;20047;-84
2023/07/18 12:45:19;;;;;;;0.82;0.52;;;24.90;73.10;;;;;;5094881;28;20044;-83